Flight Track Log - Related Links

Times and Time Zones

All times are in EDT time to prevent confusion due to time zone crossing. See the AAY956 flight status page for this flight to view local times or setup timezone preferences in your user account.

Time Position Orientation Groundspeed Altitude Reporting Facility
EDT Latitude Longitude Course Direction KTS MPH feet Rate Location/Type
Fri 02:34:33 PM 26.9856 -81.9494 North 203 234 2,800  Level Miami Center
Fri 02:35:33 PM 27.0503 -81.9453 North 220 253 3,800 1,800 Climbing Miami Center
Fri 02:36:33 PM 27.1233 -81.9483 358° North 243 280 6,400 2,500 Climbing Miami Center
Fri 02:37:33 PM 27.2008 -81.9425 North 264 304 8,800 2,050 Climbing Miami Center
Fri 02:38:33 PM 27.2806 -81.9297 North 277 319 10,500 1,650 Climbing Miami Center
Fri 02:39:33 PM 27.3728 -81.9172 North 304 350 12,100 2,000 Climbing Miami Center
Fri 02:40:33 PM 27.4733 -81.9006 North 341 392 14,500 2,400 Climbing Miami Center
Fri 02:41:33 PM 27.5806 -81.8844 North 372 428 16,900 1,750 Climbing Miami Center
Fri 02:42:33 PM 27.6961 -81.9153 347° North 381 438 18,000 1,450 Climbing Miami Center
Fri 02:43:33 PM 27.8033 -81.9553 342° North 394 453 19,800 1,322 Climbing Miami Center
Fri 02:45:30 PM 28.0197 -82.0414 341° North 429 494 21,900 1,051 Climbing Jacksonville Center
Fri 02:46:30 PM 28.1081 -82.1231 321° Northwest 419 482 22,900 1,400 Climbing Jacksonville Center
Fri 02:47:30 PM 28.2044 -82.1931 327° Northwest 419 482 24,700 1,850 Climbing Jacksonville Center
Fri 02:48:30 PM 28.3194 -82.2325 343° North 411 473 26,600 1,700 Climbing Jacksonville Center
Fri 02:49:30 PM 28.4322 -82.2669 345° North 416 479 28,100 1,900 Climbing Jacksonville Center
Fri 02:50:30 PM 28.5389 -82.3064 342° North 416 479 30,400 1,900 Climbing Jacksonville Center
Fri 02:51:30 PM 28.6433 -82.3389 345° North 401 461 31,900 800 Climbing Jacksonville Center
Fri 02:52:30 PM 28.7331 -82.3669 345° North 377 434 32,000 50 Climbing Jacksonville Center
Fri 02:53:30 PM 28.8378 -82.4044 343° North 382 440 32,000  Level Jacksonville Center
Fri 02:54:30 PM 28.9422 -82.4417 343° North 382 440 32,000  Level Jacksonville Center
Fri 02:55:30 PM 29.0444 -82.4769 343° North 382 440 32,000  Level Jacksonville Center
Fri 02:56:30 PM 29.1492 -82.5122 344° North 382 440 32,000  Level Jacksonville Center
Fri 02:57:30 PM 29.2514 -82.5497 342° North 382 440 32,000  Level Jacksonville Center
Fri 02:58:30 PM 29.3622 -82.5708 351° North 382 440 32,000 333 Level Jacksonville Center
Fri 03:00:30 PM 29.5875 -82.5653 North 398 458 33,000 333 Climbing Jacksonville Center
Fri 03:01:30 PM 29.7003 -82.5603 North 403 464 33,000  Level Jacksonville Center
Fri 03:02:30 PM 29.8131 -82.5597 360° North 403 464 33,000  Level Jacksonville Center
Fri 03:03:30 PM 29.9236 -82.5569 North 403 464 33,000  Level Jacksonville Center
Fri 03:04:30 PM 30.0364 -82.5614 358° North 403 464 33,000  Level Jacksonville Center
Fri 03:05:30 PM 30.1450 -82.5586 North 396 456 33,000  Level Jacksonville Center
Fri 03:06:30 PM 30.2556 -82.5583 360° North 396 456 33,000  Level Jacksonville Center
Fri 03:07:30 PM 30.3664 -82.5556 North 396 456 33,000  Level Jacksonville Center
Fri 03:08:30 PM 30.4747 -82.5528 North 391 450 33,000  Level Jacksonville Center
Fri 03:09:30 PM 30.5875 -82.5522 360° North 391 450 33,000  Level Jacksonville Center
Fri 03:10:30 PM 30.7003 -82.5472 North 396 456 33,000  Level Jacksonville Center
Fri 03:11:30 PM 30.8111 -82.5419 North 396 456 33,000  Level Jacksonville Center
Fri 03:12:30 PM 30.9217 -82.5367 North 401 461 33,000  Level Jacksonville Center
Fri 03:13:30 PM 31.0322 -82.5289 North 401 461 33,000  Level Jacksonville Center
Fri 03:14:30 PM 31.1469 -82.5139 North 401 461 33,000  Level Jacksonville Center
Fri 03:15:30 PM 31.2578 -82.4989 North 406 467 33,000  Level Jacksonville Center
Fri 03:16:30 PM 31.3725 -82.4789 North 406 467 33,000  Level Jacksonville Center
Fri 03:17:30 PM 31.4853 -82.4639 North 406 467 33,000  Level Jacksonville Center
Fri 03:18:30 PM 31.5958 -82.4461 North 406 467 33,000  Level Jacksonville Center
Fri 03:19:30 PM 31.7064 -82.4311 North 406 467 33,000  Level Jacksonville Center
Fri 03:20:30 PM 31.8211 -82.4133 North 406 467 33,000  Level Jacksonville Center
Fri 03:21:46 PM 31.9778 -82.3911 North 399 459 33,000  Level Atlanta Center
Fri 03:22:46 PM 32.0903 -82.3742 North 406 467 33,000  Level Atlanta Center
Fri 03:23:46 PM 32.1986 -82.3600 North 406 467 33,000  Level Atlanta Center
Fri 03:24:46 PM 32.3006 -82.3408 North 406 467 33,000  Level Atlanta Center
Fri 03:25:46 PM 32.4131 -82.3264 North 406 467 33,000  Level Atlanta Center
Fri 03:26:46 PM 32.5256 -82.3119 North 406 467 33,000  Level Atlanta Center
Fri 03:27:46 PM 32.6381 -82.2950 North 406 467 33,000  Level Atlanta Center
Fri 03:28:46 PM 32.7547 -82.2753 North 411 473 33,000  Level Atlanta Center
Fri 03:29:46 PM 32.8672 -82.2606 North 411 473 33,000  Level Atlanta Center
Fri 03:30:46 PM 32.9797 -82.2436 North 406 467 33,000  Level Atlanta Center
Fri 03:31:46 PM 33.0942 -82.2264 North 406 467 33,000  Level Atlanta Center
Fri 03:32:46 PM 33.2086 -82.2089 North 406 467 33,000  Level Atlanta Center
Fri 03:33:46 PM 33.3233 -82.1917 North 406 467 33,000  Level Atlanta Center
Fri 03:34:46 PM 33.4356 -82.1744 North 406 467 33,000  Level Atlanta Center
Fri 03:35:46 PM 33.5503 -82.1544 North 412 474 33,000  Level Atlanta Center
Fri 03:36:46 PM 33.6794 -82.1367 North 412 474 33,000  Level Atlanta Center
Fri 03:37:46 PM 33.7939 -82.1192 North 417 480 33,000  Level Atlanta Center
Fri 03:38:46 PM 33.9106 -82.1014 North 417 480 33,000  Level Atlanta Center
Fri 03:39:46 PM 34.0292 -82.0811 North 424 488 33,000  Level Atlanta Center
Fri 03:40:46 PM 34.1436 -82.0661 North 424 488 33,000  Level Atlanta Center
Fri 03:41:46 PM 34.2603 -82.0483 North 424 488 33,000  Level Atlanta Center
Fri 03:42:46 PM 34.3769 -82.0303 North 424 488 33,000 -100 Level Atlanta Center
Fri 03:43:46 PM 34.4933 -82.0125 North 424 488 32,800 -500 Descending Atlanta Center
Fri 03:44:46 PM 34.6100 -81.9944 North 424 488 32,000 -800 Descending Atlanta Center
Fri 03:45:46 PM 34.7142 -81.9794 North 429 494 31,200 -500 Descending Atlanta Center
Fri 03:46:46 PM 34.8306 -81.9614 North 424 488 31,000 -100 Descending Atlanta Center
Fri 03:47:46 PM 34.9492 -81.9406 North 424 488 31,000  Level Atlanta Center
Fri 03:48:46 PM 35.0658 -81.9225 North 424 488 31,000  Level Atlanta Center
Fri 03:49:46 PM 35.1819 -81.8864 14° North 424 488 31,000  Level Atlanta Center
Fri 03:50:46 PM 35.2961 -81.8581 11° North 424 488 31,000  Level Atlanta Center
Fri 03:51:46 PM 35.4144 -81.8217 14° North 429 494 31,000  Level Atlanta Center
Fri 03:52:46 PM 35.5328 -81.7931 11° North 429 494 31,000 500 Level Atlanta Center
Fri 03:53:46 PM 35.6636 -81.7511 15° North 429 494 32,000 1,000 Climbing Atlanta Center
Fri 03:54:46 PM 35.7819 -81.7197 12° North 429 494 33,000 500 Climbing Atlanta Center
Fri 03:55:46 PM 35.9022 -81.6828 14° North 429 494 33,000  Level Atlanta Center
Fri 03:56:46 PM 36.0244 -81.6458 14° North 434 499 33,000  Level Atlanta Center
Fri 03:57:46 PM 36.1406 -81.6117 13° North 429 494 33,000  Level Atlanta Center
Fri 03:58:46 PM 36.2567 -81.5772 13° North 429 494 33,000  Level Atlanta Center
Fri 03:59:46 PM 36.3792 -81.5425 13° North 429 494 33,000  Level Atlanta Center
Fri 04:00:46 PM 36.4972 -81.5078 13° North 429 494 33,000  Level Atlanta Center
Fri 04:01:46 PM 36.6175 -81.4706 14° North 429 494 33,000  Level Atlanta Center
Fri 04:02:46 PM 36.7375 -81.4356 13° North 429 494 33,000  Level Atlanta Center
Fri 04:03:46 PM 36.8536 -81.4006 14° North 429 494 33,000  Level Atlanta Center
Fri 04:04:46 PM 36.9739 -81.3681 12° North 429 494 33,000  Level Atlanta Center
Fri 04:06:43 PM 37.1983 -81.2997 14° North 440 506 33,000  Level Indianapolis Center
Fri 04:07:46 PM 37.3206 -81.2614 14° North 439 505 33,000  Level Indianapolis Center
Fri 04:08:48 PM 37.4356 -81.2269 13° North 438 504 33,000  Level Indianapolis Center
Fri 04:09:50 PM 37.5747 -81.1861 13° North 437 503 33,000  Level Indianapolis Center
Fri 04:10:52 PM 37.6903 -81.1503 14° North 437 503 33,000  Level Indianapolis Center
Fri 04:11:54 PM 37.8050 -81.1158 13° North 437 503 33,000  Level Indianapolis Center
Fri 04:12:56 PM 37.9372 -81.0778 13° North 437 503 33,000  Level Indianapolis Center
Fri 04:13:58 PM 38.0569 -81.0436 13° North 437 503 33,000  Level Indianapolis Center
Fri 04:15:00 PM 38.1764 -81.0078 13° North 438 504 33,000  Level Indianapolis Center
Fri 04:16:02 PM 38.2950 -80.9739 13° North 438 504 33,000  Level Indianapolis Center
Fri 04:17:05 PM 38.4142 -80.9383 13° North 438 504 33,000  Level Indianapolis Center
Fri 04:18:07 PM 38.5581 -80.8975 13° North 439 505 33,000  Level Indianapolis Center
Fri 04:19:09 PM 38.6772 -80.8622 13° North 440 506 33,000  Level Indianapolis Center
Fri 04:20:11 PM 38.7972 -80.8261 13° North 442 509 33,000  Level Indianapolis Center
Fri 04:21:13 PM 38.9169 -80.7894 13° North 442 509 33,000  Level Indianapolis Center
Fri 04:22:15 PM 39.0367 -80.7572 12° North 442 509 33,000  Level Indianapolis Center
Fri 04:23:17 PM 39.1803 -80.6983 18° North 451 519 33,000  Level Indianapolis Center
Fri 04:24:19 PM 39.2997 -80.6528 16° North 451 519 33,000  Level Indianapolis Center
Fri 04:25:21 PM 39.4214 -80.6042 17° North 451 519 33,000  Level Indianapolis Center
Fri 04:26:23 PM 39.5422 -80.5550 17° North 452 520 33,000  Level Indianapolis Center
Fri 04:27:21 PM 39.6572 -80.5100 17° North 451 519 33,000  Level Cleveland Center
Fri 04:28:23 PM 39.7769 -80.4581 18° North 452 520 33,000  Level Cleveland Center
Fri 04:29:25 PM 39.8978 -80.4067 18° North 454 522 33,000  Level Cleveland Center
Fri 04:30:27 PM 40.0428 -80.3447 18° North 458 527 33,000  Level Cleveland Center
Fri 04:31:29 PM 40.1631 -80.2969 17° North 455 524 33,000  Level Cleveland Center
Fri 04:32:31 PM 40.2836 -80.2428 19° North 455 524 33,000 -194 Level Cleveland Center
Fri 04:33:33 PM 40.4128 -80.1908 17° North 454 522 32,600 -532 Descending Cleveland Center
Fri 04:34:35 PM 40.5331 -80.1369 19° North 454 522 31,900 -726 Descending Cleveland Center
Fri 04:35:37 PM 40.6556 -80.0864 17° North 460 529 31,100 -432 Descending Cleveland Center
Fri 04:36:40 PM 40.7792 -80.0314 19° North 467 537 31,000 -240 Descending Cleveland Center
Fri 04:37:42 PM 40.9064 -79.9775 18° North 470 541 30,600 -823 Descending Cleveland Center
Fri 04:38:44 PM 41.0308 -79.9233 18° North 470 541 29,300 -1,210 Descending Cleveland Center
Fri 04:39:46 PM 41.1753 -79.8594 18° North 467 537 28,100 -629 Descending Cleveland Center
Fri 04:40:48 PM 41.2950 -79.8094 17° North 458 527 28,000 -48 Descending Cleveland Center
Fri 04:41:50 PM 41.4156 -79.7531 19° North 457 526 28,000  Level Cleveland Center
Fri 04:42:52 PM 41.5356 -79.7022 18° North 455 524 28,000  Level Cleveland Center
Fri 04:43:54 PM 41.6675 -79.6417 19° North 458 527 28,000 -480 Level Cleveland Center
Fri 04:44:57 PM 41.8008 -79.5847 18° North 456 525 27,000 -1,200 Descending Cleveland Center
Fri 04:45:59 PM 41.9192 -79.5317 18° North 452 520 25,500 -1,548 Descending Cleveland Center
Fri 04:47:01 PM 42.0372 -79.4797 18° North 446 513 23,800 -1,935 Descending Cleveland Center
Fri 04:48:03 PM 42.1539 -79.4294 18° North 442 509 21,500 -2,323 Descending Cleveland Center
Fri 04:49:05 PM 42.2714 -79.3739 19° North 448 516 19,000 -2,806 Descending Cleveland Center
Fri 04:50:07 PM 42.4050 -79.3136 18° North 426 490 15,700 -2,952 Descending Cleveland Center
Fri 04:51:09 PM 42.5136 -79.2656 18° North 419 482 12,900 -2,032 Descending Cleveland Center
Fri 04:52:11 PM 42.6139 -79.2167 20° North 388 447 11,500 -1,161 Descending Cleveland Center
Fri 04:53:13 PM 42.7039 -79.1653 23° Northeast 355 409 10,500 -1,392 Descending Cleveland Center
Fri 04:54:16 PM 42.7975 -79.1014 27° Northeast 333 383 8,600 -1,920 Descending Cleveland Center
Fri 04:55:18 PM 42.8758 -79.0267 35° Northeast 328 377 6,500 -1,790 Descending Cleveland Center
Fri 04:56:20 PM 42.9461 -78.9553 37° Northeast 331 381 4,900 -1,385 Descending Cleveland Center
Fri 04:57:28 PM 43.0167 -78.8667 43° Northeast 285 328 3,500 -1,070 Descending Buffalo TRACON
Fri 04:58:29 PM 43.0833 -78.8333 20° North 223 257 2,600 -992 Descending Buffalo TRACON
Fri 04:59:29 PM 43.1167 -78.8667 324° Northwest 118 136 1,500 -900 Descending Buffalo TRACON
Fri 05:00:29 PM 43.1167 -78.9167 270° West 117 135 800 -700 Descending Buffalo TRACON
Fri 05:02:00 PM 43.1000 -78.9333 251° West  Level FlightAware Approximate

Login

Don't have an account? Register now (free) for customized features, flight alerts, and more!